sensor_id;sensor_type;location;lat;lon;timestamp;temperature;humidity
7155;DHT22;3619;53.784;10.440;2022-12-29T00:00:14;7.60;99.90
7155;DHT22;3619;53.784;10.440;2022-12-29T00:02:43;7.60;99.90
7155;DHT22;3619;53.784;10.440;2022-12-29T00:05:17;7.60;99.90
7155;DHT22;3619;53.784;10.440;2022-12-29T00:07:44;7.60;99.90
7155;DHT22;3619;53.784;10.440;2022-12-29T00:10:10;7.70;99.90
7155;DHT22;3619;53.784;10.440;2022-12-29T00:12:37;7.60;99.90
7155;DHT22;3619;53.784;10.440;2022-12-29T00:15:23;7.70;99.90
7155;DHT22;3619;53.784;10.440;2022-12-29T00:18:05;7.70;99.90
7155;DHT22;3619;53.784;10.440;2022-12-29T00:20:33;7.70;99.90
7155;DHT22;3619;53.784;10.440;2022-12-29T00:23:17;7.80;99.90
7155;DHT22;3619;53.784;10.440;2022-12-29T00:26:03;7.80;99.90
7155;DHT22;3619;53.784;10.440;2022-12-29T00:28:47;7.80;99.90
7155;DHT22;3619;53.784;10.440;2022-12-29T00:31:32;7.80;99.90
7155;DHT22;3619;53.784;10.440;2022-12-29T00:34:17;7.80;99.90
7155;DHT22;3619;53.784;10.440;2022-12-29T00:37:01;7.90;99.90
7155;DHT22;3619;53.784;10.440;2022-12-29T00:39:33;7.90;99.90
7155;DHT22;3619;53.784;10.440;2022-12-29T00:42:18;8.00;99.90
7155;DHT22;3619;53.784;10.440;2022-12-29T00:44:58;7.90;99.90
7155;DHT22;3619;53.784;10.440;2022-12-29T00:47:29;7.90;99.90
7155;DHT22;3619;53.784;10.440;2022-12-29T00:49:55;7.90;99.90
7155;DHT22;3619;53.784;10.440;2022-12-29T00:52:21;7.90;99.90
7155;DHT22;3619;53.784;10.440;2022-12-29T00:55:02;7.90;99.90
7155;DHT22;3619;53.784;10.440;2022-12-29T00:57:30;8.00;99.90
7155;DHT22;3619;53.784;10.440;2022-12-29T01:00:08;8.00;99.90
7155;DHT22;3619;53.784;10.440;2022-12-29T01:02:37;8.00;99.90
7155;DHT22;3619;53.784;10.440;2022-12-29T01:05:05;8.00;99.90
7155;DHT22;3619;53.784;10.440;2022-12-29T01:07:34;8.10;99.90
7155;DHT22;3619;53.784;10.440;2022-12-29T01:10:03;8.10;99.90
7155;DHT22;3619;53.784;10.440;2022-12-29T01:12:40;8.10;99.90
7155;DHT22;3619;53.784;10.440;2022-12-29T01:15:14;8.10;99.90
7155;DHT22;3619;53.784;10.440;2022-12-29T01:17:42;8.10;99.90
7155;DHT22;3619;53.784;10.440;2022-12-29T01:20:12;8.20;99.90
7155;DHT22;3619;53.784;10.440;2022-12-29T01:22:45;8.20;99.90
7155;DHT22;3619;53.784;10.440;2022-12-29T01:25:22;8.20;99.90
7155;DHT22;3619;53.784;10.440;2022-12-29T01:30:04;8.20;99.90
7155;DHT22;3619;53.784;10.440;2022-12-29T01:31:14;8.20;99.90
7155;DHT22;3619;53.784;10.440;2022-12-29T01:33:43;8.30;99.90
7155;DHT22;3619;53.784;10.440;2022-12-29T01:36:25;8.30;99.90
7155;DHT22;3619;53.784;10.440;2022-12-29T01:38:56;8.30;99.90
7155;DHT22;3619;53.784;10.440;2022-12-29T01:41:24;8.30;99.90
7155;DHT22;3619;53.784;10.440;2022-12-29T01:43:55;8.30;99.90
7155;DHT22;3619;53.784;10.440;2022-12-29T01:46:31;8.30;99.90
7155;DHT22;3619;53.784;10.440;2022-12-29T01:52:37;8.30;99.90
7155;DHT22;3619;53.784;10.440;2022-12-29T01:55:08;8.30;99.90
7155;DHT22;3619;53.784;10.440;2022-12-29T01:57:43;8.30;99.90
7155;DHT22;3619;53.784;10.440;2022-12-29T02:00:17;8.30;99.90
7155;DHT22;3619;53.784;10.440;2022-12-29T02:02:58;8.30;99.90
7155;DHT22;3619;53.784;10.440;2022-12-29T02:06:18;8.40;99.90
7155;DHT22;3619;53.784;10.440;2022-12-29T02:09:16;8.40;99.90
7155;DHT22;3619;53.784;10.440;2022-12-29T02:12:41;8.40;99.90
7155;DHT22;3619;53.784;10.440;2022-12-29T02:16:14;8.40;99.90
7155;DHT22;3619;53.784;10.440;2022-12-29T02:18:28;8.40;99.90
7155;DHT22;3619;53.784;10.440;2022-12-29T02:30:53;8.50;99.90
7155;DHT22;3619;53.784;10.440;2022-12-29T02:34:00;8.50;99.90
7155;DHT22;3619;53.784;10.440;2022-12-29T02:36:39;8.50;99.90
7155;DHT22;3619;53.784;10.440;2022-12-29T02:39:13;8.50;99.90
7155;DHT22;3619;53.784;10.440;2022-12-29T02:41:48;8.50;99.90
7155;DHT22;3619;53.784;10.440;2022-12-29T02:44:34;8.50;99.90
7155;DHT22;3619;53.784;10.440;2022-12-29T02:47:16;8.60;99.90
7155;DHT22;3619;53.784;10.440;2022-12-29T02:49:51;8.60;99.90
7155;DHT22;3619;53.784;10.440;2022-12-29T02:52:51;8.60;99.90
7155;DHT22;3619;53.784;10.440;2022-12-29T02:55:48;8.60;99.90
7155;DHT22;3619;53.784;10.440;2022-12-29T02:58:36;8.70;99.90
7155;DHT22;3619;53.784;10.440;2022-12-29T03:01:33;8.60;99.90
7155;DHT22;3619;53.784;10.440;2022-12-29T03:04:38;8.60;99.90
7155;DHT22;3619;53.784;10.440;2022-12-29T03:07:18;8.70;99.90
7155;DHT22;3619;53.784;10.440;2022-12-29T03:10:17;8.70;99.90
7155;DHT22;3619;53.784;10.440;2022-12-29T03:13:08;8.70;99.90
7155;DHT22;3619;53.784;10.440;2022-12-29T03:16:02;8.70;99.90
7155;DHT22;3619;53.784;10.440;2022-12-29T03:18:54;8.70;99.90
7155;DHT22;3619;53.784;10.440;2022-12-29T03:21:53;8.70;99.90
7155;DHT22;3619;53.784;10.440;2022-12-29T03:27:45;8.70;99.90
7155;DHT22;3619;53.784;10.440;2022-12-29T03:35:17;8.70;99.90
7155;DHT22;3619;53.784;10.440;2022-12-29T03:40:21;8.70;99.90
7155;DHT22;3619;53.784;10.440;2022-12-29T03:43:16;8.70;99.90
7155;DHT22;3619;53.784;10.440;2022-12-29T03:48:57;8.70;99.90
7155;DHT22;3619;53.784;10.440;2022-12-29T03:51:41;8.70;99.90
7155;DHT22;3619;53.784;10.440;2022-12-29T03:54:20;8.70;99.90
7155;DHT22;3619;53.784;10.440;2022-12-29T03:57:39;8.80;99.90
7155;DHT22;3619;53.784;10.440;2022-12-29T04:00:24;8.80;99.90
7155;DHT22;3619;53.784;10.440;2022-12-29T04:03:17;8.80;99.90
7155;DHT22;3619;53.784;10.440;2022-12-29T04:06:34;8.80;99.90
7155;DHT22;3619;53.784;10.440;2022-12-29T04:09:27;8.70;99.90
7155;DHT22;3619;53.784;10.440;2022-12-29T04:12:04;8.90;99.90
7155;DHT22;3619;53.784;10.440;2022-12-29T04:14:32;8.80;99.90
7155;DHT22;3619;53.784;10.440;2022-12-29T04:17:01;8.80;99.90
7155;DHT22;3619;53.784;10.440;2022-12-29T04:19:43;8.80;99.90
7155;DHT22;3619;53.784;10.440;2022-12-29T04:22:58;8.90;99.90
7155;DHT22;3619;53.784;10.440;2022-12-29T04:38:08;8.90;99.90
7155;DHT22;3619;53.784;10.440;2022-12-29T04:41:45;8.90;99.90
7155;DHT22;3619;53.784;10.440;2022-12-29T04:44:30;8.90;99.90
7155;DHT22;3619;53.784;10.440;2022-12-29T04:47:03;8.90;99.90
7155;DHT22;3619;53.784;10.440;2022-12-29T04:49:39;8.90;99.90
7155;DHT22;3619;53.784;10.440;2022-12-29T04:52:06;8.90;99.90
7155;DHT22;3619;53.784;10.440;2022-12-29T04:54:35;8.90;99.90
7155;DHT22;3619;53.784;10.440;2022-12-29T04:57:01;8.90;99.90
7155;DHT22;3619;53.784;10.440;2022-12-29T04:59:34;8.90;99.90
7155;DHT22;3619;53.784;10.440;2022-12-29T05:02:06;8.90;99.90
7155;DHT22;3619;53.784;10.440;2022-12-29T05:04:38;8.90;99.90
7155;DHT22;3619;53.784;10.440;2022-12-29T05:07:07;9.00;99.90
7155;DHT22;3619;53.784;10.440;2022-12-29T05:09:37;9.00;99.90
7155;DHT22;3619;53.784;10.440;2022-12-29T05:12:04;9.10;99.90
7155;DHT22;3619;53.784;10.440;2022-12-29T05:14:31;9.00;99.90
7155;DHT22;3619;53.784;10.440;2022-12-29T05:17:01;9.10;99.90
7155;DHT22;3619;53.784;10.440;2022-12-29T05:19:31;9.20;99.90
7155;DHT22;3619;53.784;10.440;2022-12-29T05:22:00;9.20;99.90
7155;DHT22;3619;53.784;10.440;2022-12-29T05:24:28;9.20;99.90
7155;DHT22;3619;53.784;10.440;2022-12-29T05:27:07;9.10;99.90
7155;DHT22;3619;53.784;10.440;2022-12-29T05:29:42;9.20;99.90
7155;DHT22;3619;53.784;10.440;2022-12-29T05:35:57;9.20;99.90
7155;DHT22;3619;53.784;10.440;2022-12-29T05:39:11;9.20;99.90
7155;DHT22;3619;53.784;10.440;2022-12-29T05:41:39;9.20;99.90
7155;DHT22;3619;53.784;10.440;2022-12-29T05:47:24;9.20;99.90
7155;DHT22;3619;53.784;10.440;2022-12-29T05:49:51;9.20;99.90
7155;DHT22;3619;53.784;10.440;2022-12-29T05:53:23;9.30;99.90
7155;DHT22;3619;53.784;10.440;2022-12-29T05:55:50;9.30;99.90
7155;DHT22;3619;53.784;10.440;2022-12-29T05:58:46;9.30;99.90
7155;DHT22;3619;53.784;10.440;2022-12-29T06:07:29;9.30;99.90
7155;DHT22;3619;53.784;10.440;2022-12-29T06:10:12;9.30;99.90
7155;DHT22;3619;53.784;10.440;2022-12-29T06:12:43;9.30;99.90
7155;DHT22;3619;53.784;10.440;2022-12-29T06:15:10;9.30;99.90
7155;DHT22;3619;53.784;10.440;2022-12-29T06:17:44;9.30;99.90
7155;DHT22;3619;53.784;10.440;2022-12-29T06:27:19;9.40;99.90
7155;DHT22;3619;53.784;10.440;2022-12-29T06:30:00;9.40;99.90
7155;DHT22;3619;53.784;10.440;2022-12-29T06:32:26;9.30;99.90
7155;DHT22;3619;53.784;10.440;2022-12-29T06:34:57;9.40;99.90
7155;DHT22;3619;53.784;10.440;2022-12-29T06:38:03;9.40;99.90
7155;DHT22;3619;53.784;10.440;2022-12-29T06:40:45;9.40;99.90
7155;DHT22;3619;53.784;10.440;2022-12-29T06:43:27;9.40;99.90
7155;DHT22;3619;53.784;10.440;2022-12-29T06:46:01;9.40;99.90
7155;DHT22;3619;53.784;10.440;2022-12-29T06:48:30;9.40;99.90
7155;DHT22;3619;53.784;10.440;2022-12-29T06:51:00;9.40;99.90
7155;DHT22;3619;53.784;10.440;2022-12-29T06:53:34;9.40;99.90
7155;DHT22;3619;53.784;10.440;2022-12-29T06:56:03;9.40;99.90
7155;DHT22;3619;53.784;10.440;2022-12-29T06:58:34;9.40;99.90
7155;DHT22;3619;53.784;10.440;2022-12-29T07:01:06;9.40;99.90
7155;DHT22;3619;53.784;10.440;2022-12-29T07:04:13;9.30;99.90
7155;DHT22;3619;53.784;10.440;2022-12-29T07:07:14;9.30;99.90
7155;DHT22;3619;53.784;10.440;2022-12-29T07:09:43;9.20;99.90
7155;DHT22;3619;53.784;10.440;2022-12-29T07:12:16;9.30;99.90
7155;DHT22;3619;53.784;10.440;2022-12-29T07:15:15;9.30;99.90
7155;DHT22;3619;53.784;10.440;2022-12-29T07:17:45;9.30;99.90
7155;DHT22;3619;53.784;10.440;2022-12-29T07:20:35;9.30;99.90
7155;DHT22;3619;53.784;10.440;2022-12-29T07:26:39;9.30;99.90
7155;DHT22;3619;53.784;10.440;2022-12-29T07:29:10;9.30;99.90
7155;DHT22;3619;53.784;10.440;2022-12-29T07:38:16;9.10;99.90
7155;DHT22;3619;53.784;10.440;2022-12-29T07:44:25;9.20;99.90
7155;DHT22;3619;53.784;10.440;2022-12-29T07:47:28;9.10;99.90
7155;DHT22;3619;53.784;10.440;2022-12-29T07:57:24;9.20;99.90
7155;DHT22;3619;53.784;10.440;2022-12-29T08:06:22;9.20;99.90
7155;DHT22;3619;53.784;10.440;2022-12-29T08:09:44;9.20;99.90
7155;DHT22;3619;53.784;10.440;2022-12-29T08:12:46;9.20;99.90
7155;DHT22;3619;53.784;10.440;2022-12-29T08:15:29;9.20;99.90
7155;DHT22;3619;53.784;10.440;2022-12-29T08:17:55;9.20;99.90
7155;DHT22;3619;53.784;10.440;2022-12-29T08:20:54;9.20;99.90
7155;DHT22;3619;53.784;10.440;2022-12-29T08:23:32;9.20;99.90
7155;DHT22;3619;53.784;10.440;2022-12-29T08:28:23;9.20;99.90
7155;DHT22;3619;53.784;10.440;2022-12-29T08:29:37;9.20;99.90
7155;DHT22;3619;53.784;10.440;2022-12-29T08:38:17;9.30;99.90
7155;DHT22;3619;53.784;10.440;2022-12-29T08:40:51;9.30;99.90
7155;DHT22;3619;53.784;10.440;2022-12-29T08:43:34;9.20;99.90
7155;DHT22;3619;53.784;10.440;2022-12-29T08:46:16;9.20;99.90
7155;DHT22;3619;53.784;10.440;2022-12-29T08:49:01;9.20;99.90
7155;DHT22;3619;53.784;10.440;2022-12-29T08:54:43;9.20;99.90
7155;DHT22;3619;53.784;10.440;2022-12-29T08:55:05;9.30;99.90
7155;DHT22;3619;53.784;10.440;2022-12-29T08:57:36;9.40;99.90
7155;DHT22;3619;53.784;10.440;2022-12-29T09:00:04;9.50;99.90
7155;DHT22;3619;53.784;10.440;2022-12-29T09:02:34;9.50;99.90
7155;DHT22;3619;53.784;10.440;2022-12-29T09:05:04;9.60;99.90
7155;DHT22;3619;53.784;10.440;2022-12-29T09:07:32;9.60;99.90
7155;DHT22;3619;53.784;10.440;2022-12-29T09:09:59;9.60;99.90
7155;DHT22;3619;53.784;10.440;2022-12-29T09:12:29;9.60;99.90
7155;DHT22;3619;53.784;10.440;2022-12-29T09:24:25;9.60;99.90
7155;DHT22;3619;53.784;10.440;2022-12-29T09:27:08;9.60;99.90
7155;DHT22;3619;53.784;10.440;2022-12-29T09:29:35;9.60;99.90
7155;DHT22;3619;53.784;10.440;2022-12-29T09:32:28;9.70;99.90
7155;DHT22;3619;53.784;10.440;2022-12-29T09:38:36;9.80;99.90
7155;DHT22;3619;53.784;10.440;2022-12-29T09:41:11;9.90;99.90
7155;DHT22;3619;53.784;10.440;2022-12-29T09:43:55;9.90;99.90
7155;DHT22;3619;53.784;10.440;2022-12-29T09:46:42;9.90;99.90
7155;DHT22;3619;53.784;10.440;2022-12-29T09:52:58;9.90;99.90
7155;DHT22;3619;53.784;10.440;2022-12-29T09:55:49;9.90;99.90
7155;DHT22;3619;53.784;10.440;2022-12-29T09:58:24;9.90;99.90
7155;DHT22;3619;53.784;10.440;2022-12-29T10:01:05;9.90;99.90
7155;DHT22;3619;53.784;10.440;2022-12-29T10:03:55;9.90;99.90
7155;DHT22;3619;53.784;10.440;2022-12-29T10:07:02;9.90;99.90
7155;DHT22;3619;53.784;10.440;2022-12-29T10:09:56;10.00;99.90
7155;DHT22;3619;53.784;10.440;2022-12-29T10:12:45;10.00;99.90
7155;DHT22;3619;53.784;10.440;2022-12-29T10:16:37;10.00;99.90
7155;DHT22;3619;53.784;10.440;2022-12-29T10:19:36;10.00;99.90
7155;DHT22;3619;53.784;10.440;2022-12-29T10:22:17;10.10;99.90
7155;DHT22;3619;53.784;10.440;2022-12-29T10:25:00;10.10;99.90
7155;DHT22;3619;53.784;10.440;2022-12-29T10:27:45;10.10;99.90
7155;DHT22;3619;53.784;10.440;2022-12-29T10:30:36;10.10;99.90
7155;DHT22;3619;53.784;10.440;2022-12-29T10:33:19;10.10;99.90
7155;DHT22;3619;53.784;10.440;2022-12-29T10:36:28;10.10;99.90
7155;DHT22;3619;53.784;10.440;2022-12-29T10:39:22;10.10;99.90
7155;DHT22;3619;53.784;10.440;2022-12-29T10:41:59;10.10;99.90
7155;DHT22;3619;53.784;10.440;2022-12-29T10:44:35;10.10;99.90
7155;DHT22;3619;53.784;10.440;2022-12-29T10:47:05;10.20;99.90
7155;DHT22;3619;53.784;10.440;2022-12-29T10:49:38;10.40;99.90
7155;DHT22;3619;53.784;10.440;2022-12-29T10:52:10;10.50;99.90
7155;DHT22;3619;53.784;10.440;2022-12-29T10:54:44;10.50;99.90
7155;DHT22;3619;53.784;10.440;2022-12-29T10:57:28;10.50;99.90
7155;DHT22;3619;53.784;10.440;2022-12-29T11:00:01;10.50;99.90
7155;DHT22;3619;53.784;10.440;2022-12-29T11:05:52;10.40;99.90
7155;DHT22;3619;53.784;10.440;2022-12-29T11:08:26;10.40;99.90
7155;DHT22;3619;53.784;10.440;2022-12-29T11:10:59;10.50;99.90
7155;DHT22;3619;53.784;10.440;2022-12-29T11:13:28;10.60;99.90
7155;DHT22;3619;53.784;10.440;2022-12-29T11:15:56;10.70;99.90
7155;DHT22;3619;53.784;10.440;2022-12-29T11:18:30;10.70;99.90
7155;DHT22;3619;53.784;10.440;2022-12-29T11:21:01;10.70;99.90
7155;DHT22;3619;53.784;10.440;2022-12-29T11:23:33;10.70;99.90
7155;DHT22;3619;53.784;10.440;2022-12-29T11:26:14;10.80;99.90
7155;DHT22;3619;53.784;10.440;2022-12-29T11:28:43;10.60;99.90
7155;DHT22;3619;53.784;10.440;2022-12-29T11:31:16;10.50;99.90
7155;DHT22;3619;53.784;10.440;2022-12-29T11:33:44;10.50;99.90
7155;DHT22;3619;53.784;10.440;2022-12-29T11:36:17;10.50;99.90
7155;DHT22;3619;53.784;10.440;2022-12-29T11:38:51;10.60;99.90
7155;DHT22;3619;53.784;10.440;2022-12-29T11:41:55;10.60;99.90
7155;DHT22;3619;53.784;10.440;2022-12-29T11:45:12;10.50;99.90
7155;DHT22;3619;53.784;10.440;2022-12-29T11:47:52;10.40;99.90
7155;DHT22;3619;53.784;10.440;2022-12-29T11:50:30;10.40;99.90
7155;DHT22;3619;53.784;10.440;2022-12-29T11:53:04;10.40;99.90
7155;DHT22;3619;53.784;10.440;2022-12-29T11:55:38;10.40;99.90
7155;DHT22;3619;53.784;10.440;2022-12-29T11:58:14;10.30;99.90
7155;DHT22;3619;53.784;10.440;2022-12-29T12:00:43;10.30;99.90
7155;DHT22;3619;53.784;10.440;2022-12-29T12:03:16;10.30;99.90
7155;DHT22;3619;53.784;10.440;2022-12-29T12:05:48;10.30;99.90
7155;DHT22;3619;53.784;10.440;2022-12-29T12:08:21;10.30;99.90
7155;DHT22;3619;53.784;10.440;2022-12-29T12:10:54;10.30;99.90
7155;DHT22;3619;53.784;10.440;2022-12-29T12:13:29;10.40;99.90
7155;DHT22;3619;53.784;10.440;2022-12-29T12:16:02;10.30;99.90
7155;DHT22;3619;53.784;10.440;2022-12-29T12:18:47;10.30;99.90
7155;DHT22;3619;53.784;10.440;2022-12-29T12:21:25;10.20;99.90
7155;DHT22;3619;53.784;10.440;2022-12-29T12:24:20;10.20;99.90
7155;DHT22;3619;53.784;10.440;2022-12-29T12:26:58;10.20;99.90
7155;DHT22;3619;53.784;10.440;2022-12-29T12:29:40;10.20;99.90
7155;DHT22;3619;53.784;10.440;2022-12-29T12:32:15;10.10;99.90
7155;DHT22;3619;53.784;10.440;2022-12-29T12:34:45;10.10;99.90
7155;DHT22;3619;53.784;10.440;2022-12-29T12:37:52;10.10;99.90
7155;DHT22;3619;53.784;10.440;2022-12-29T12:40:55;10.00;99.90
7155;DHT22;3619;53.784;10.440;2022-12-29T12:43:37;10.10;99.90
7155;DHT22;3619;53.784;10.440;2022-12-29T12:46:22;10.10;99.90
7155;DHT22;3619;53.784;10.440;2022-12-29T12:49:11;10.10;99.90
7155;DHT22;3619;53.784;10.440;2022-12-29T12:51:50;10.10;99.90
7155;DHT22;3619;53.784;10.440;2022-12-29T12:54:37;10.10;99.90
7155;DHT22;3619;53.784;10.440;2022-12-29T12:57:13;10.00;99.90
7155;DHT22;3619;53.784;10.440;2022-12-29T12:59:55;10.00;99.90
7155;DHT22;3619;53.784;10.440;2022-12-29T13:02:35;10.00;99.90
7155;DHT22;3619;53.784;10.440;2022-12-29T13:05:27;10.00;99.90
7155;DHT22;3619;53.784;10.440;2022-12-29T13:11:13;10.00;99.90
7155;DHT22;3619;53.784;10.440;2022-12-29T13:14:10;10.00;99.90
7155;DHT22;3619;53.784;10.440;2022-12-29T13:16:43;10.00;99.90
7155;DHT22;3619;53.784;10.440;2022-12-29T13:19:22;10.10;99.90
7155;DHT22;3619;53.784;10.440;2022-12-29T13:25:20;10.00;99.90
7155;DHT22;3619;53.784;10.440;2022-12-29T13:32:42;9.90;99.90
7155;DHT22;3619;53.784;10.440;2022-12-29T13:34:35;9.90;99.90
7155;DHT22;3619;53.784;10.440;2022-12-29T13:37:32;9.90;99.90
7155;DHT22;3619;53.784;10.440;2022-12-29T13:40:13;9.90;99.90
7155;DHT22;3619;53.784;10.440;2022-12-29T13:42:41;9.90;99.90
7155;DHT22;3619;53.784;10.440;2022-12-29T13:45:15;9.90;99.90
7155;DHT22;3619;53.784;10.440;2022-12-29T13:47:48;9.90;99.90
7155;DHT22;3619;53.784;10.440;2022-12-29T13:50:21;10.00;99.90
7155;DHT22;3619;53.784;10.440;2022-12-29T13:53:05;10.00;99.90
7155;DHT22;3619;53.784;10.440;2022-12-29T13:55:39;9.90;99.90
7155;DHT22;3619;53.784;10.440;2022-12-29T13:58:12;9.80;99.90
7155;DHT22;3619;53.784;10.440;2022-12-29T14:00:51;9.70;99.90
7155;DHT22;3619;53.784;10.440;2022-12-29T14:06:21;9.50;99.90
7155;DHT22;3619;53.784;10.440;2022-12-29T14:08:50;9.40;99.90
7155;DHT22;3619;53.784;10.440;2022-12-29T14:11:22;9.40;99.90
7155;DHT22;3619;53.784;10.440;2022-12-29T14:13:51;9.30;99.90
7155;DHT22;3619;53.784;10.440;2022-12-29T14:16:31;9.20;99.90
7155;DHT22;3619;53.784;10.440;2022-12-29T14:19:11;9.20;99.90
7155;DHT22;3619;53.784;10.440;2022-12-29T14:21:40;9.10;99.90
7155;DHT22;3619;53.784;10.440;2022-12-29T14:24:27;9.10;99.90
7155;DHT22;3619;53.784;10.440;2022-12-29T14:27:51;9.00;99.90
7155;DHT22;3619;53.784;10.440;2022-12-29T14:30:50;8.90;99.90
7155;DHT22;3619;53.784;10.440;2022-12-29T14:33:20;8.90;99.90
7155;DHT22;3619;53.784;10.440;2022-12-29T14:35:50;8.90;99.90
7155;DHT22;3619;53.784;10.440;2022-12-29T14:38:40;8.80;99.90
7155;DHT22;3619;53.784;10.440;2022-12-29T14:41:32;8.80;99.90
7155;DHT22;3619;53.784;10.440;2022-12-29T14:47:57;8.60;99.90
7155;DHT22;3619;53.784;10.440;2022-12-29T15:24:12;8.00;99.90
7155;DHT22;3619;53.784;10.440;2022-12-29T15:26:55;8.00;99.90
7155;DHT22;3619;53.784;10.440;2022-12-29T15:29:40;8.00;99.90
7155;DHT22;3619;53.784;10.440;2022-12-29T15:32:23;7.90;99.90
7155;DHT22;3619;53.784;10.440;2022-12-29T15:34:52;7.90;99.90
7155;DHT22;3619;53.784;10.440;2022-12-29T15:37:35;7.90;99.90
7155;DHT22;3619;53.784;10.440;2022-12-29T15:40:22;7.90;99.90
7155;DHT22;3619;53.784;10.440;2022-12-29T15:50:03;7.80;99.90
7155;DHT22;3619;53.784;10.440;2022-12-29T15:56:52;7.80;99.90
7155;DHT22;3619;53.784;10.440;2022-12-29T15:59:46;7.80;99.90
7155;DHT22;3619;53.784;10.440;2022-12-29T16:02:27;7.80;99.90
7155;DHT22;3619;53.784;10.440;2022-12-29T16:05:14;7.80;99.90
7155;DHT22;3619;53.784;10.440;2022-12-29T16:08:20;7.80;99.90
7155;DHT22;3619;53.784;10.440;2022-12-29T16:10:54;7.90;99.90
7155;DHT22;3619;53.784;10.440;2022-12-29T16:13:26;7.90;99.90
7155;DHT22;3619;53.784;10.440;2022-12-29T16:16:01;7.90;99.90
7155;DHT22;3619;53.784;10.440;2022-12-29T16:18:34;7.90;99.90
7155;DHT22;3619;53.784;10.440;2022-12-29T16:21:18;8.00;99.90
7155;DHT22;3619;53.784;10.440;2022-12-29T16:23:50;7.90;99.90
7155;DHT22;3619;53.784;10.440;2022-12-29T16:26:18;7.90;99.90
7155;DHT22;3619;53.784;10.440;2022-12-29T16:28:56;7.80;99.90
7155;DHT22;3619;53.784;10.440;2022-12-29T16:31:34;7.70;99.90
7155;DHT22;3619;53.784;10.440;2022-12-29T16:34:11;7.70;99.90
7155;DHT22;3619;53.784;10.440;2022-12-29T16:37:31;7.70;99.90
7155;DHT22;3619;53.784;10.440;2022-12-29T16:40:25;7.60;99.90
7155;DHT22;3619;53.784;10.440;2022-12-29T16:43:22;7.60;99.90
7155;DHT22;3619;53.784;10.440;2022-12-29T16:49:41;7.50;99.90
7155;DHT22;3619;53.784;10.440;2022-12-29T16:52:33;7.60;99.90
7155;DHT22;3619;53.784;10.440;2022-12-29T16:55:24;7.50;99.90
7155;DHT22;3619;53.784;10.440;2022-12-29T16:58:05;7.50;99.90
7155;DHT22;3619;53.784;10.440;2022-12-29T17:00:41;7.50;99.90
7155;DHT22;3619;53.784;10.440;2022-12-29T17:04:33;7.40;99.90
7155;DHT22;3619;53.784;10.440;2022-12-29T17:06:21;7.40;99.90
7155;DHT22;3619;53.784;10.440;2022-12-29T17:08:53;7.40;99.90
7155;DHT22;3619;53.784;10.440;2022-12-29T17:11:57;7.30;99.90
7155;DHT22;3619;53.784;10.440;2022-12-29T17:14:50;7.30;99.90
7155;DHT22;3619;53.784;10.440;2022-12-29T17:17:47;7.30;99.90
7155;DHT22;3619;53.784;10.440;2022-12-29T17:21:13;7.30;99.90
7155;DHT22;3619;53.784;10.440;2022-12-29T17:23:44;7.30;99.90
7155;DHT22;3619;53.784;10.440;2022-12-29T17:26:34;7.30;99.90
7155;DHT22;3619;53.784;10.440;2022-12-29T17:29:02;7.30;99.90
7155;DHT22;3619;53.784;10.440;2022-12-29T17:31:30;7.20;99.90
7155;DHT22;3619;53.784;10.440;2022-12-29T17:34:11;7.20;99.90
7155;DHT22;3619;53.784;10.440;2022-12-29T17:36:43;7.20;99.90
7155;DHT22;3619;53.784;10.440;2022-12-29T17:39:10;7.20;99.90
7155;DHT22;3619;53.784;10.440;2022-12-29T17:41:42;7.20;99.90
7155;DHT22;3619;53.784;10.440;2022-12-29T17:47:42;7.20;99.90
7155;DHT22;3619;53.784;10.440;2022-12-29T17:50:14;7.20;99.90
7155;DHT22;3619;53.784;10.440;2022-12-29T17:52:43;7.20;99.90
7155;DHT22;3619;53.784;10.440;2022-12-29T17:55:25;7.20;99.90
7155;DHT22;3619;53.784;10.440;2022-12-29T17:57:52;7.20;99.90
7155;DHT22;3619;53.784;10.440;2022-12-29T18:00:22;7.10;99.90
7155;DHT22;3619;53.784;10.440;2022-12-29T18:03:14;7.10;99.90
7155;DHT22;3619;53.784;10.440;2022-12-29T18:06:39;7.10;99.90
7155;DHT22;3619;53.784;10.440;2022-12-29T18:09:18;7.10;99.90
7155;DHT22;3619;53.784;10.440;2022-12-29T18:11:49;7.10;99.90
7155;DHT22;3619;53.784;10.440;2022-12-29T18:14:24;7.20;99.90
7155;DHT22;3619;53.784;10.440;2022-12-29T18:17:08;7.20;99.90
7155;DHT22;3619;53.784;10.440;2022-12-29T18:23:18;7.40;99.90
7155;DHT22;3619;53.784;10.440;2022-12-29T18:26:41;7.50;99.90
7155;DHT22;3619;53.784;10.440;2022-12-29T18:29:12;7.60;99.90
7155;DHT22;3619;53.784;10.440;2022-12-29T18:31:39;7.70;99.90
7155;DHT22;3619;53.784;10.440;2022-12-29T18:34:26;7.70;99.90
7155;DHT22;3619;53.784;10.440;2022-12-29T18:36:54;7.60;99.90
7155;DHT22;3619;53.784;10.440;2022-12-29T18:39:28;7.70;99.90
7155;DHT22;3619;53.784;10.440;2022-12-29T18:41:56;7.80;99.90
7155;DHT22;3619;53.784;10.440;2022-12-29T18:44:25;7.80;99.90
7155;DHT22;3619;53.784;10.440;2022-12-29T18:46:58;7.80;99.90
7155;DHT22;3619;53.784;10.440;2022-12-29T18:49:40;7.80;99.90
7155;DHT22;3619;53.784;10.440;2022-12-29T18:52:12;7.80;99.90
7155;DHT22;3619;53.784;10.440;2022-12-29T18:54:55;7.80;99.90
7155;DHT22;3619;53.784;10.440;2022-12-29T18:57:31;7.80;99.90
7155;DHT22;3619;53.784;10.440;2022-12-29T18:59:59;7.70;99.90
7155;DHT22;3619;53.784;10.440;2022-12-29T19:02:26;7.70;99.90
7155;DHT22;3619;53.784;10.440;2022-12-29T19:04:59;7.70;99.90
7155;DHT22;3619;53.784;10.440;2022-12-29T19:09:05;7.70;99.90
7155;DHT22;3619;53.784;10.440;2022-12-29T19:10:57;7.70;99.90
7155;DHT22;3619;53.784;10.440;2022-12-29T19:15:01;7.70;99.90
7155;DHT22;3619;53.784;10.440;2022-12-29T19:16:57;7.70;99.90
7155;DHT22;3619;53.784;10.440;2022-12-29T19:22:47;7.60;99.90
7155;DHT22;3619;53.784;10.440;2022-12-29T19:26:12;7.60;99.90
7155;DHT22;3619;53.784;10.440;2022-12-29T19:38:30;7.60;99.90
7155;DHT22;3619;53.784;10.440;2022-12-29T19:40:59;7.70;99.90
7155;DHT22;3619;53.784;10.440;2022-12-29T19:43:32;7.70;99.90
7155;DHT22;3619;53.784;10.440;2022-12-29T19:46:12;7.70;99.90
7155;DHT22;3619;53.784;10.440;2022-12-29T19:49:23;7.80;99.90
7155;DHT22;3619;53.784;10.440;2022-12-29T19:52:00;7.80;99.90
7155;DHT22;3619;53.784;10.440;2022-12-29T19:54:33;7.80;99.90
7155;DHT22;3619;53.784;10.440;2022-12-29T20:01:05;7.80;99.90
7155;DHT22;3619;53.784;10.440;2022-12-29T20:10:15;7.90;99.90
7155;DHT22;3619;53.784;10.440;2022-12-29T20:12:43;7.90;99.90
7155;DHT22;3619;53.784;10.440;2022-12-29T20:15:35;7.80;99.90
7155;DHT22;3619;53.784;10.440;2022-12-29T20:21:38;7.90;99.90
7155;DHT22;3619;53.784;10.440;2022-12-29T20:24:40;7.80;99.90
7155;DHT22;3619;53.784;10.440;2022-12-29T20:27:47;7.80;99.90
7155;DHT22;3619;53.784;10.440;2022-12-29T20:30:29;7.70;99.90
7155;DHT22;3619;53.784;10.440;2022-12-29T20:33:04;7.70;99.90
7155;DHT22;3619;53.784;10.440;2022-12-29T20:35:38;7.70;99.90
7155;DHT22;3619;53.784;10.440;2022-12-29T20:38:13;7.70;99.90
7155;DHT22;3619;53.784;10.440;2022-12-29T20:40:42;7.60;99.90
7155;DHT22;3619;53.784;10.440;2022-12-29T20:43:13;7.60;99.90
7155;DHT22;3619;53.784;10.440;2022-12-29T20:45:50;7.60;99.90
7155;DHT22;3619;53.784;10.440;2022-12-29T20:48:27;7.60;99.90
7155;DHT22;3619;53.784;10.440;2022-12-29T20:50:59;7.60;99.90
7155;DHT22;3619;53.784;10.440;2022-12-29T20:56:22;7.60;99.90
7155;DHT22;3619;53.784;10.440;2022-12-29T21:02:29;7.50;99.90
7155;DHT22;3619;53.784;10.440;2022-12-29T21:05:12;7.50;99.90
7155;DHT22;3619;53.784;10.440;2022-12-29T21:17:09;7.30;99.90